Time;durP1;ratioP1;P1;durP2;ratioP2;P2;SDS_P1;SDS_P2;PMS_P1;PMS_P2;Temp;Humidity;BMP_temperature;BMP_pressure;BME280_temperature;BME280_humidity;BME280_pressure;Samples;Min_cycle;Max_cycle;Signal;HPM_P1;HPM_P2
2023/05/06 00:01:07;;;;;;;1.60;1.50;;;20.60;61.80;;;;;;5080933;28;20277;-43
2023/05/06 00:03:38;;;;;;;1.53;1.43;;;20.60;61.80;;;;;;5076147;28;20193;-43
2023/05/06 00:06:08;;;;;;;1.40;1.30;;;20.60;61.70;;;;;;5086050;28;20200;-43
2023/05/06 00:08:38;;;;;;;1.73;1.23;;;20.60;61.70;;;;;;5079496;28;20677;-43
2023/05/06 00:11:10;;;;;;;2.17;1.40;;;20.60;61.70;;;;;;5059072;28;20210;-43
2023/05/06 00:13:41;;;;;;;1.67;1.20;;;20.60;61.70;;;;;;5087778;28;20189;-43
2023/05/06 00:16:09;;;;;;;1.87;1.30;;;20.60;61.70;;;;;;5084212;28;20208;-43
2023/05/06 00:18:40;;;;;;;1.20;1.10;;;20.60;61.70;;;;;;5080237;28;20223;-43
2023/05/06 00:21:11;;;;;;;1.47;1.30;;;20.60;61.70;;;;;;5071616;28;20208;-43
2023/05/06 00:23:39;;;;;;;1.43;1.33;;;20.60;61.60;;;;;;5056217;28;20201;-43
2023/05/06 00:26:09;;;;;;;2.07;1.47;;;20.60;61.60;;;;;;5087480;28;20544;-43
2023/05/06 00:28:39;;;;;;;1.77;1.40;;;20.60;61.60;;;;;;5056952;28;20279;-43
2023/05/06 00:31:10;;;;;;;2.17;1.50;;;20.50;61.50;;;;;;5073581;28;20194;-43
2023/05/06 00:33:38;;;;;;;1.53;1.30;;;20.60;61.60;;;;;;5052126;28;20218;-43
2023/05/06 00:36:08;;;;;;;1.33;1.23;;;20.50;61.60;;;;;;5074189;28;20224;-43
2023/05/06 00:38:39;;;;;;;1.60;1.50;;;20.50;61.50;;;;;;5086826;28;20198;-43
2023/05/06 00:41:12;;;;;;;1.27;1.17;;;20.60;61.60;;;;;;5091053;28;20539;-43
2023/05/06 00:43:45;;;;;;;1.50;1.30;;;20.50;61.50;;;;;;5081701;28;20201;-43
2023/05/06 00:46:18;;;;;;;2.63;1.63;;;20.50;61.50;;;;;;5078643;28;20205;-43
2023/05/06 00:48:49;;;;;;;1.37;1.27;;;20.50;61.50;;;;;;5059015;28;20643;-43
2023/05/06 00:51:18;;;;;;;1.50;1.40;;;20.60;61.50;;;;;;5084973;28;20631;-43
2023/05/06 00:53:47;;;;;;;1.37;1.20;;;20.50;61.40;;;;;;5043217;28;20229;-43
2023/05/06 00:56:18;;;;;;;1.50;1.37;;;20.50;61.50;;;;;;5057146;28;20209;-43
2023/05/06 00:58:48;;;;;;;3.33;1.30;;;20.50;61.50;;;;;;5041385;28;20207;-43
2023/05/06 01:01:21;;;;;;;1.30;1.10;;;20.50;61.40;;;;;;5068445;28;20189;-43
2023/05/06 01:03:55;;;;;;;1.87;1.17;;;20.50;61.50;;;;;;5067298;28;20194;-43
2023/05/06 01:06:44;;;;;;;1.73;1.20;;;20.50;61.50;;;;;;5057787;28;20600;-43
2023/05/06 01:09:31;;;;;;;1.57;1.40;;;20.50;61.40;;;;;;5055303;28;20217;-43
2023/05/06 01:12:20;;;;;;;1.40;1.30;;;20.50;61.40;;;;;;5045375;28;20341;-43
2023/05/06 01:15:19;;;;;;;1.67;1.47;;;20.50;61.40;;;;;;5069282;28;20186;-43
2023/05/06 01:17:50;;;;;;;1.50;1.40;;;20.50;61.30;;;;;;5056329;28;20194;-43
2023/05/06 01:20:21;;;;;;;2.47;1.80;;;20.40;61.30;;;;;;5060446;28;20186;-43
2023/05/06 01:22:56;;;;;;;2.00;1.67;;;20.50;61.50;;;;;;5066865;28;20548;-43
2023/05/06 01:25:29;;;;;;;1.43;1.33;;;20.40;61.30;;;;;;5067440;28;20665;-43
2023/05/06 01:27:59;;;;;;;1.80;1.40;;;20.50;61.30;;;;;;5031917;28;20197;-43
2023/05/06 01:30:39;;;;;;;1.77;1.33;;;20.50;61.30;;;;;;5052600;28;20583;-43
2023/05/06 01:33:46;;;;;;;2.13;1.50;;;20.50;61.30;;;;;;5048565;28;20243;-43
2023/05/06 01:36:48;;;;;;;2.03;1.53;;;20.50;61.30;;;;;;5068504;28;20217;-43
2023/05/06 01:39:25;;;;;;;1.73;1.60;;;20.40;61.30;;;;;;5071523;28;20189;-43
2023/05/06 01:41:56;;;;;;;2.80;1.60;;;20.40;61.40;;;;;;5050869;28;20209;-43
2023/05/06 01:44:27;;;;;;;1.83;1.50;;;20.40;61.40;;;;;;5038499;28;20195;-43
2023/05/06 01:47:00;;;;;;;1.87;1.70;;;20.40;61.30;;;;;;5066041;28;20224;-43
2023/05/06 01:49:29;;;;;;;2.60;1.60;;;20.40;61.30;;;;;;5071138;28;20460;-43
2023/05/06 01:51:59;;;;;;;2.50;1.47;;;20.40;61.30;;;;;;5069207;28;20198;-43
2023/05/06 01:54:30;;;;;;;3.17;1.50;;;20.40;61.30;;;;;;5087734;28;20182;-43
2023/05/06 01:56:59;;;;;;;2.27;1.80;;;20.40;61.30;;;;;;5066912;28;20196;-43
2023/05/06 01:59:35;;;;;;;3.00;1.33;;;20.50;61.30;;;;;;5075244;28;20609;-43
2023/05/06 02:02:07;;;;;;;2.03;1.40;;;20.40;61.20;;;;;;5069435;28;20194;-43
2023/05/06 02:04:39;;;;;;;1.97;1.60;;;20.40;61.20;;;;;;5080848;28;20181;-43
2023/05/06 02:07:11;;;;;;;2.33;1.50;;;20.40;61.30;;;;;;5086647;28;20203;-43
2023/05/06 02:09:42;;;;;;;1.43;1.20;;;20.40;61.20;;;;;;5082548;28;20210;-43
2023/05/06 02:12:14;;;;;;;1.47;1.20;;;20.40;61.20;;;;;;5068649;28;20586;-43
2023/05/06 02:14:45;;;;;;;1.60;1.50;;;20.40;61.20;;;;;;5077515;28;20286;-43
2023/05/06 02:17:16;;;;;;;2.20;1.57;;;20.40;61.20;;;;;;5071690;28;20210;-43
2023/05/06 02:19:45;;;;;;;1.70;1.60;;;20.40;61.10;;;;;;5068415;28;20696;-43
2023/05/06 02:22:15;;;;;;;2.00;1.70;;;20.40;61.10;;;;;;5067594;28;20218;-43
2023/05/06 02:24:46;;;;;;;3.43;1.77;;;20.40;61.10;;;;;;5069708;28;20201;-43
2023/05/06 02:27:17;;;;;;;1.60;1.50;;;20.40;61.10;;;;;;5069890;28;20220;-43
2023/05/06 02:29:47;;;;;;;1.97;1.40;;;20.40;61.10;;;;;;5061435;28;20210;-43
2023/05/06 02:32:17;;;;;;;2.43;1.30;;;20.40;61.10;;;;;;5069111;28;20620;-43
2023/05/06 02:34:50;;;;;;;1.53;1.40;;;20.40;61.10;;;;;;5070624;28;20835;-44
2023/05/06 02:37:20;;;;;;;1.63;1.53;;;20.30;61.00;;;;;;5076523;28;20210;-43
2023/05/06 02:39:50;;;;;;;2.87;1.37;;;20.40;61.10;;;;;;5066576;28;20202;-43
2023/05/06 02:42:21;;;;;;;1.77;1.67;;;20.30;61.00;;;;;;5071127;28;20206;-43
2023/05/06 02:44:53;;;;;;;1.47;1.37;;;20.30;61.00;;;;;;5078340;28;20181;-43
2023/05/06 02:47:22;;;;;;;1.67;1.57;;;20.40;61.00;;;;;;5072618;28;20214;-43
2023/05/06 02:49:53;;;;;;;1.60;1.50;;;20.40;61.00;;;;;;5065671;28;20212;-43
2023/05/06 02:52:25;;;;;;;1.80;1.70;;;20.30;60.90;;;;;;5076824;28;20565;-43
2023/05/06 02:54:55;;;;;;;1.40;1.30;;;20.30;60.90;;;;;;5056154;28;20722;-43
2023/05/06 02:57:26;;;;;;;1.60;1.50;;;20.30;60.90;;;;;;5068693;28;20633;-43
2023/05/06 02:59:57;;;;;;;2.33;1.40;;;20.30;60.90;;;;;;5069010;28;20209;-43
2023/05/06 03:02:28;;;;;;;1.30;1.20;;;20.30;61.00;;;;;;5069066;28;20244;-43
2023/05/06 03:04:59;;;;;;;1.30;1.20;;;20.30;60.90;;;;;;5068988;28;20611;-43
2023/05/06 03:07:30;;;;;;;2.57;1.60;;;20.30;60.90;;;;;;5081478;28;20228;-43
2023/05/06 03:10:04;;;;;;;1.67;1.57;;;20.30;60.90;;;;;;5066213;28;20218;-44
2023/05/06 03:12:39;;;;;;;1.50;1.40;;;20.30;60.90;;;;;;5067499;28;20197;-43
2023/05/06 03:15:10;;;;;;;1.60;1.37;;;20.30;60.90;;;;;;5072580;28;20300;-43
2023/05/06 03:17:41;;;;;;;1.57;1.47;;;20.20;60.80;;;;;;5072175;28;20190;-43
2023/05/06 03:20:17;;;;;;;2.00;1.30;;;20.30;60.80;;;;;;5070920;28;20208;-43
2023/05/06 03:22:49;;;;;;;1.70;1.30;;;20.20;60.80;;;;;;5073339;28;20205;-43
2023/05/06 03:25:22;;;;;;;1.50;1.20;;;20.20;60.80;;;;;;5072064;28;20254;-43
2023/05/06 03:27:53;;;;;;;3.57;1.70;;;20.20;60.80;;;;;;5048699;28;20724;-43
2023/05/06 03:30:24;;;;;;;1.70;1.60;;;20.30;60.90;;;;;;5074454;28;20232;-43
2023/05/06 03:32:56;;;;;;;1.60;1.50;;;20.20;60.80;;;;;;5073592;28;20263;-43
2023/05/06 03:35:32;;;;;;;2.13;1.40;;;20.20;60.80;;;;;;5056937;28;20209;-43
2023/05/06 03:38:14;;;;;;;1.73;1.60;;;20.20;60.80;;;;;;5071819;28;20229;-43
2023/05/06 03:40:47;;;;;;;1.33;1.23;;;20.20;60.80;;;;;;5087660;28;20227;-43
2023/05/06 03:43:15;;;;;;;1.80;1.63;;;20.20;60.80;;;;;;5052924;28;20550;-43
2023/05/06 03:45:46;;;;;;;1.87;1.40;;;20.20;60.70;;;;;;5064536;28;20227;-43
2023/05/06 03:48:17;;;;;;;1.63;1.30;;;20.20;60.70;;;;;;5088977;28;20204;-43
2023/05/06 03:50:49;;;;;;;1.60;1.40;;;20.20;60.70;;;;;;5090166;28;20245;-43
2023/05/06 03:53:20;;;;;;;1.63;1.53;;;20.20;60.70;;;;;;5048172;28;20237;-43
2023/05/06 03:55:54;;;;;;;2.00;1.50;;;20.10;60.60;;;;;;5046323;28;20193;-43
2023/05/06 03:58:39;;;;;;;1.40;1.30;;;20.10;60.60;;;;;;5050432;28;20209;-44
2023/05/06 04:01:09;;;;;;;1.93;1.27;;;20.20;60.70;;;;;;5066186;28;20217;-43
2023/05/06 04:03:39;;;;;;;1.30;1.20;;;20.10;60.60;;;;;;5070016;28;20216;-43
2023/05/06 04:06:09;;;;;;;3.00;1.70;;;20.20;60.60;;;;;;5065292;28;20201;-43
2023/05/06 04:08:39;;;;;;;1.40;1.30;;;20.10;60.50;;;;;;5071127;28;20197;-43
2023/05/06 04:11:10;;;;;;;1.40;1.20;;;20.10;60.50;;;;;;5067053;28;20210;-44
2023/05/06 04:13:40;;;;;;;1.33;1.23;;;20.20;60.50;;;;;;5053857;28;20644;-44
2023/05/06 04:16:12;;;;;;;2.37;1.47;;;20.20;60.50;;;;;;5051743;28;20543;-43
2023/05/06 04:18:42;;;;;;;1.63;1.23;;;20.10;60.40;;;;;;5048676;28;20214;-43
2023/05/06 04:21:25;;;;;;;1.27;1.17;;;20.10;60.50;;;;;;5057910;28;20193;-43
2023/05/06 04:24:03;;;;;;;2.00;1.50;;;20.10;60.40;;;;;;5063106;28;20220;-43
2023/05/06 04:26:32;;;;;;;1.53;1.30;;;20.10;60.40;;;;;;5067450;28;20197;-43
2023/05/06 04:29:02;;;;;;;1.60;1.30;;;20.10;60.30;;;;;;5071435;28;20609;-43
2023/05/06 04:31:36;;;;;;;1.47;1.37;;;20.10;60.30;;;;;;5070964;28;20686;-43
2023/05/06 04:34:06;;;;;;;2.37;1.50;;;20.10;60.30;;;;;;5052314;28;20323;-43
2023/05/06 04:36:35;;;;;;;1.80;1.50;;;20.10;60.30;;;;;;5071100;28;20585;-44
2023/05/06 04:39:07;;;;;;;3.03;1.40;;;20.10;60.30;;;;;;5056003;28;20195;-43
2023/05/06 04:41:40;;;;;;;1.50;1.40;;;20.10;60.20;;;;;;5070216;28;20198;-44
2023/05/06 04:44:11;;;;;;;1.67;1.40;;;20.10;60.20;;;;;;5054486;28;20198;-43
2023/05/06 04:46:39;;;;;;;1.60;1.50;;;20.10;60.20;;;;;;5032053;28;20226;-43
2023/05/06 04:49:10;;;;;;;3.27;1.60;;;20.10;60.20;;;;;;5050405;28;20210;-43
2023/05/06 04:51:43;;;;;;;1.83;1.73;;;20.10;60.10;;;;;;5062824;28;20234;-43
2023/05/06 04:54:11;;;;;;;1.27;1.17;;;20.10;60.10;;;;;;5077062;28;20279;-43
2023/05/06 04:56:43;;;;;;;1.50;1.40;;;20.10;60.10;;;;;;5078210;28;20190;-43
2023/05/06 04:59:15;;;;;;;1.90;1.70;;;20.10;60.10;;;;;;5083191;28;20220;-43
2023/05/06 05:01:45;;;;;;;1.67;1.50;;;20.10;60.10;;;;;;5076771;28;20216;-43
2023/05/06 05:04:13;;;;;;;3.00;1.30;;;20.10;60.10;;;;;;5090574;28;20201;-43
2023/05/06 05:06:44;;;;;;;1.30;1.20;;;20.10;60.10;;;;;;5059070;28;20185;-43
2023/05/06 05:09:25;;;;;;;1.33;1.20;;;20.10;60.10;;;;;;5070425;28;20213;-43
2023/05/06 05:11:54;;;;;;;1.77;1.40;;;20.00;60.00;;;;;;5064137;28;20221;-43
2023/05/06 05:14:24;;;;;;;1.77;1.60;;;20.00;60.00;;;;;;5051523;28;20236;-44
2023/05/06 05:16:57;;;;;;;1.87;1.37;;;20.00;60.00;;;;;;5070484;28;20189;-43
2023/05/06 05:19:27;;;;;;;2.00;1.80;;;20.00;60.00;;;;;;5059583;28;20190;-43
2023/05/06 05:21:56;;;;;;;1.57;1.47;;;20.10;60.10;;;;;;5049831;28;20201;-43
2023/05/06 05:24:27;;;;;;;1.40;1.30;;;20.10;60.00;;;;;;5073591;28;20201;-43
2023/05/06 05:26:57;;;;;;;1.43;1.33;;;20.00;60.00;;;;;;5072015;28;20193;-43
2023/05/06 05:29:29;;;;;;;1.47;1.37;;;20.10;60.00;;;;;;5076173;28;20629;-43
2023/05/06 05:32:00;;;;;;;1.50;1.40;;;20.10;60.60;;;;;;5067853;28;20221;-43
2023/05/06 05:34:31;;;;;;;2.00;1.57;;;20.10;60.00;;;;;;5072100;28;20650;-44
2023/05/06 05:37:04;;;;;;;1.63;1.43;;;20.00;60.00;;;;;;5065432;28;20197;-43
2023/05/06 05:39:34;;;;;;;3.53;1.60;;;20.10;60.00;;;;;;5071176;28;20554;-44
2023/05/06 05:42:04;;;;;;;2.27;1.50;;;20.10;60.00;;;;;;5069350;28;20201;-43
2023/05/06 05:44:36;;;;;;;1.60;1.47;;;20.10;60.00;;;;;;5083471;28;20200;-43
2023/05/06 05:47:07;;;;;;;1.83;1.40;;;20.00;60.00;;;;;;5072692;28;20216;-43
2023/05/06 05:49:37;;;;;;;3.00;1.87;;;20.00;60.00;;;;;;5080836;28;20232;-43
2023/05/06 05:52:09;;;;;;;11.20;3.73;;;20.00;60.10;;;;;;5086564;28;20315;-43
2023/05/06 05:54:42;;;;;;;9.90;3.67;;;20.10;60.10;;;;;;5069216;28;20186;-44
2023/05/06 05:57:10;;;;;;;6.47;3.30;;;20.10;60.20;;;;;;5077485;28;20182;-43
2023/05/06 05:59:39;;;;;;;8.03;2.77;;;20.00;60.10;;;;;;5069078;28;20206;-43
2023/05/06 06:02:06;;;;;;;5.00;2.80;;;20.10;60.10;;;;;;5066266;28;20378;-43
2023/05/06 06:04:38;;;;;;;7.43;2.60;;;20.00;60.10;;;;;;5053138;28;20205;-44
2023/05/06 06:07:08;;;;;;;5.33;2.50;;;20.10;60.10;;;;;;5074767;28;20295;-43
2023/05/06 06:09:40;;;;;;;4.70;2.60;;;20.10;60.10;;;;;;5070471;28;20240;-43
2023/05/06 06:12:14;;;;;;;4.53;2.40;;;20.00;60.10;;;;;;5064200;28;20220;-43
2023/05/06 06:14:46;;;;;;;4.50;2.80;;;20.00;60.10;;;;;;5069522;28;20186;-43
2023/05/06 06:17:18;;;;;;;3.47;2.37;;;20.10;60.10;;;;;;5077044;28;20193;-43
2023/05/06 06:19:50;;;;;;;5.70;2.60;;;20.00;60.10;;;;;;5067822;28;20205;-43
2023/05/06 06:22:20;;;;;;;5.83;3.00;;;20.00;60.10;;;;;;5066025;28;20225;-43
2023/05/06 06:24:54;;;;;;;5.23;2.53;;;20.10;60.20;;;;;;5087355;28;20201;-43
2023/05/06 06:27:24;;;;;;;8.17;2.70;;;20.00;60.10;;;;;;5082718;28;20208;-43
2023/05/06 06:29:50;;;;;;;4.80;2.77;;;20.10;60.20;;;;;;5067166;28;20213;-43
2023/05/06 06:32:20;;;;;;;4.70;2.80;;;20.10;60.20;;;;;;5081593;28;20201;-43
2023/05/06 06:34:52;;;;;;;4.87;2.40;;;20.00;60.10;;;;;;5074030;28;20651;-42
2023/05/06 06:37:25;;;;;;;4.37;2.40;;;20.10;60.40;;;;;;5081190;28;20205;-43
2023/05/06 06:39:56;;;;;;;4.20;2.67;;;20.00;60.50;;;;;;5055776;28;20193;-43
2023/05/06 06:42:26;;;;;;;5.73;2.67;;;20.10;61.40;;;;;;5068794;28;20210;-44
2023/05/06 06:44:56;;;;;;;9.17;2.77;;;20.10;61.70;;;;;;5071228;28;20189;-43
2023/05/06 06:47:26;;;;;;;9.77;2.53;;;20.10;61.80;;;;;;5056588;28;20201;-44
2023/05/06 06:49:54;;;;;;;4.50;2.77;;;20.10;61.80;;;;;;5066592;28;20299;-44
2023/05/06 06:52:26;;;;;;;7.93;3.10;;;20.10;61.60;;;;;;5083252;28;20236;-44
2023/05/06 06:55:04;;;;;;;6.13;2.90;;;20.10;61.60;;;;;;5069901;28;20525;-43
2023/05/06 06:57:36;;;;;;;9.33;3.30;;;20.10;61.70;;;;;;5071740;28;20565;-44
2023/05/06 07:00:07;;;;;;;5.80;2.93;;;20.10;61.70;;;;;;5054667;28;20221;-44
2023/05/06 07:02:38;;;;;;;4.40;2.20;;;20.20;61.60;;;;;;5073862;28;20205;-44
2023/05/06 07:05:05;;;;;;;4.97;2.50;;;20.20;61.60;;;;;;5069831;28;20204;-44
2023/05/06 07:07:48;;;;;;;6.57;2.90;;;20.10;61.60;;;;;;5078553;28;20329;-44
2023/05/06 07:10:16;;;;;;;5.47;2.50;;;20.10;61.60;;;;;;5068235;28;20588;-44
2023/05/06 07:12:46;;;;;;;4.10;2.70;;;20.20;61.60;;;;;;5075870;28;20736;-44
2023/05/06 07:15:18;;;;;;;4.60;2.67;;;20.10;61.60;;;;;;5083352;28;20194;-43
2023/05/06 07:17:45;;;;;;;5.33;2.53;;;20.20;61.60;;;;;;5074761;28;20216;-43
2023/05/06 07:20:15;;;;;;;4.50;2.23;;;20.20;61.60;;;;;;5068192;28;20197;-43
2023/05/06 07:22:46;;;;;;;4.97;2.60;;;20.20;61.60;;;;;;5069079;28;20205;-43
2023/05/06 07:25:17;;;;;;;4.23;2.17;;;20.10;61.50;;;;;;5074501;28;20225;-43
2023/05/06 07:27:48;;;;;;;4.60;2.33;;;20.20;61.60;;;;;;5076731;28;20609;-43
2023/05/06 07:30:19;;;;;;;4.63;2.27;;;20.20;61.60;;;;;;5070165;28;20531;-43
2023/05/06 07:32:51;;;;;;;3.63;2.50;;;20.10;61.50;;;;;;5071752;28;20247;-43
2023/05/06 07:35:21;;;;;;;7.83;2.83;;;20.10;61.50;;;;;;5070300;28;20270;-44
2023/05/06 07:37:52;;;;;;;3.80;2.23;;;20.20;61.40;;;;;;5069322;28;20189;-44
2023/05/06 07:40:22;;;;;;;2.87;1.93;;;20.20;61.40;;;;;;5079692;28;20246;-43
2023/05/06 07:42:51;;;;;;;2.90;1.90;;;20.20;61.40;;;;;;5073842;28;20634;-43
2023/05/06 07:45:28;;;;;;;4.60;2.30;;;20.20;61.40;;;;;;5078826;28;20198;-43
2023/05/06 07:48:03;;;;;;;3.63;2.40;;;20.20;61.40;;;;;;5062843;28;20216;-44
2023/05/06 07:50:34;;;;;;;3.17;2.20;;;20.20;61.40;;;;;;5082506;28;20673;-43
2023/05/06 07:53:05;;;;;;;4.77;2.37;;;20.20;61.30;;;;;;5078378;28;20225;-43
2023/05/06 07:55:48;;;;;;;5.47;2.60;;;20.20;61.30;;;;;;5080294;28;20217;-42
2023/05/06 07:58:23;;;;;;;3.87;2.07;;;20.20;61.30;;;;;;5066825;28;20305;-42
2023/05/06 08:00:52;;;;;;;4.17;2.30;;;20.20;61.20;;;;;;5047924;28;20218;-43
2023/05/06 08:03:24;;;;;;;3.43;1.93;;;20.30;61.30;;;;;;5064727;28;20206;-43
2023/05/06 08:05:57;;;;;;;3.23;2.07;;;20.20;61.20;;;;;;5066273;28;20639;-43
2023/05/06 08:08:31;;;;;;;2.87;1.87;;;20.20;61.20;;;;;;5065957;28;20205;-43
2023/05/06 08:11:03;;;;;;;2.93;2.10;;;20.30;61.20;;;;;;5071158;28;20255;-43
2023/05/06 08:13:36;;;;;;;4.87;2.03;;;20.30;61.20;;;;;;5066267;28;20209;-43
2023/05/06 08:16:05;;;;;;;2.57;1.93;;;20.30;61.30;;;;;;5062718;28;20642;-43
2023/05/06 08:18:34;;;;;;;4.00;2.47;;;20.30;61.30;;;;;;5043047;28;20232;-43
2023/05/06 08:21:05;;;;;;;5.10;2.07;;;20.30;61.30;;;;;;5048280;28;20202;-43
2023/05/06 08:23:34;;;;;;;2.30;1.83;;;20.30;61.20;;;;;;5062339;28;20206;-43
2023/05/06 08:26:11;;;;;;;3.40;1.60;;;20.30;61.20;;;;;;5074898;28;20631;-43
2023/05/06 08:28:42;;;;;;;4.40;2.17;;;20.40;61.20;;;;;;5068717;28;20276;-43
2023/05/06 08:31:11;;;;;;;2.97;1.80;;;20.30;61.10;;;;;;5062778;28;21062;-43
2023/05/06 08:33:43;;;;;;;2.87;1.67;;;20.40;61.10;;;;;;5069060;28;20206;-43
2023/05/06 08:36:13;;;;;;;4.93;1.97;;;20.40;61.10;;;;;;5071273;28;20198;-43
2023/05/06 08:38:49;;;;;;;2.10;1.67;;;20.40;61.10;;;;;;5069562;28;20213;-43
2023/05/06 08:41:20;;;;;;;3.03;1.90;;;20.40;61.10;;;;;;5060725;28;20186;-43
2023/05/06 08:43:49;;;;;;;3.37;1.80;;;20.40;61.20;;;;;;5066306;28;20687;-43
2023/05/06 08:46:18;;;;;;;2.10;1.80;;;20.40;61.10;;;;;;5040979;28;20842;-43
2023/05/06 08:48:49;;;;;;;2.63;1.73;;;20.50;61.10;;;;;;5069053;28;20202;-43
2023/05/06 08:51:30;;;;;;;2.37;2.13;;;20.40;61.00;;;;;;5067462;28;20229;-42
2023/05/06 08:54:02;;;;;;;2.67;2.00;;;20.50;61.10;;;;;;5064036;28;20233;-44
2023/05/06 08:56:35;;;;;;;3.63;1.73;;;20.50;61.10;;;;;;5072089;28;20282;-44
2023/05/06 08:59:12;;;;;;;2.80;1.70;;;20.50;61.10;;;;;;5050113;28;20331;-44
2023/05/06 09:01:41;;;;;;;3.47;1.73;;;20.50;61.10;;;;;;5052223;28;20212;-44
2023/05/06 09:04:15;;;;;;;2.73;1.70;;;20.50;61.10;;;;;;5066541;28;20639;-44
2023/05/06 09:06:57;;;;;;;2.03;1.63;;;20.50;61.00;;;;;;5070354;28;20206;-44
2023/05/06 09:09:27;;;;;;;2.90;1.90;;;20.50;61.00;;;;;;5050833;28;20201;-44
2023/05/06 09:12:02;;;;;;;3.17;1.70;;;20.50;61.00;;;;;;5045357;28;20298;-44
2023/05/06 09:14:34;;;;;;;2.37;1.77;;;20.60;61.00;;;;;;5068648;28;20197;-44
2023/05/06 09:17:15;;;;;;;4.20;1.90;;;20.50;60.90;;;;;;5069066;28;20217;-44
2023/05/06 09:19:47;;;;;;;3.17;2.00;;;20.50;60.90;;;;;;5050324;28;20217;-44
2023/05/06 09:22:23;;;;;;;2.13;1.80;;;20.50;60.90;;;;;;5087746;28;20581;-44
2023/05/06 09:24:57;;;;;;;4.63;1.93;;;20.60;60.90;;;;;;5047967;28;20222;-44
2023/05/06 09:27:28;;;;;;;2.73;1.93;;;20.60;60.80;;;;;;5054804;28;20204;-44
2023/05/06 09:30:14;;;;;;;3.13;1.80;;;20.60;60.80;;;;;;5048824;28;20304;-44
2023/05/06 09:32:48;;;;;;;3.67;1.73;;;20.60;60.90;;;;;;5053008;28;20186;-44
2023/05/06 09:35:18;;;;;;;1.97;1.67;;;20.60;60.90;;;;;;5053784;28;20222;-44
2023/05/06 09:37:48;;;;;;;5.27;2.00;;;20.60;60.80;;;;;;5069012;28;20190;-44
2023/05/06 09:40:17;;;;;;;4.03;1.90;;;20.70;61.00;;;;;;5070825;28;20201;-45
2023/05/06 09:42:50;;;;;;;7.40;2.43;;;20.70;61.00;;;;;;5070838;28;20636;-44
2023/05/06 09:45:20;;;;;;;5.63;2.40;;;20.60;60.90;;;;;;5073716;28;20206;-44
2023/05/06 09:47:53;;;;;;;5.20;2.00;;;20.70;61.10;;;;;;5037760;28;20240;-44
2023/05/06 09:50:38;;;;;;;9.03;1.97;;;20.70;61.00;;;;;;5068976;28;20863;-44
2023/05/06 09:53:12;;;;;;;5.83;2.20;;;20.70;60.90;;;;;;5067849;28;20240;-44
2023/05/06 09:55:48;;;;;;;5.60;1.70;;;20.80;61.00;;;;;;5035523;28;20206;-44
2023/05/06 09:58:21;;;;;;;4.10;1.80;;;20.70;61.40;;;;;;5047336;28;20235;-44
2023/05/06 10:01:04;;;;;;;3.27;2.03;;;20.80;61.70;;;;;;5058094;28;20206;-44
2023/05/06 10:03:33;;;;;;;4.03;2.00;;;20.90;62.10;;;;;;5024196;28;20203;-44
2023/05/06 10:06:05;;;;;;;4.27;1.60;;;20.90;62.40;;;;;;5021267;28;20256;-44
2023/05/06 10:08:36;;;;;;;6.13;2.00;;;20.90;62.70;;;;;;5066889;28;20210;-44
2023/05/06 10:11:07;;;;;;;3.57;2.07;;;20.90;63.10;;;;;;5045915;28;20229;-44
2023/05/06 10:13:37;;;;;;;5.00;1.87;;;21.00;63.50;;;;;;5067468;28;20201;-44
2023/05/06 10:16:08;;;;;;;5.20;2.20;;;21.00;63.70;;;;;;5063053;28;20846;-43
2023/05/06 10:18:39;;;;;;;5.53;1.90;;;21.10;64.10;;;;;;5029718;28;20195;-43
2023/05/06 10:21:16;;;;;;;6.73;2.03;;;21.10;64.10;;;;;;5030155;28;20202;-43
2023/05/06 10:24:03;;;;;;;6.00;2.00;;;21.10;65.00;;;;;;5032334;28;20222;-43
2023/05/06 10:26:52;;;;;;;5.80;2.63;;;21.20;64.50;;;;;;5059926;28;20205;-43
2023/05/06 10:29:25;;;;;;;6.63;2.40;;;21.20;64.50;;;;;;5054312;28;20628;-43
2023/05/06 10:31:58;;;;;;;7.03;2.33;;;21.20;64.50;;;;;;5063961;28;20231;-43
2023/05/06 10:34:45;;;;;;;8.97;2.50;;;21.30;64.50;;;;;;5046510;28;20202;-43
2023/05/06 10:37:19;;;;;;;5.23;2.60;;;21.30;64.50;;;;;;5064660;28;20194;-43
2023/05/06 10:39:48;;;;;;;6.77;2.87;;;21.40;64.30;;;;;;5043670;28;20213;-43
2023/05/06 10:42:29;;;;;;;5.17;2.50;;;21.40;64.20;;;;;;5066160;28;20248;-43
2023/05/06 10:45:04;;;;;;;4.73;2.30;;;21.40;63.80;;;;;;5059350;28;20202;-43
2023/05/06 10:48:00;;;;;;;5.43;2.37;;;21.40;63.60;;;;;;5035964;28;20218;-43
2023/05/06 10:50:31;;;;;;;4.20;2.30;;;21.40;63.40;;;;;;5064023;28;20210;-43
2023/05/06 10:53:03;;;;;;;5.93;2.23;;;21.50;63.40;;;;;;5067918;28;20230;-43
2023/05/06 10:55:36;;;;;;;5.30;1.87;;;21.50;63.40;;;;;;5054324;28;20197;-43
2023/05/06 10:58:14;;;;;;;4.10;2.10;;;21.50;63.60;;;;;;5047047;28;20212;-43
2023/05/06 11:00:54;;;;;;;4.83;1.93;;;21.60;63.80;;;;;;5038121;28;20198;-43
2023/05/06 11:03:26;;;;;;;4.67;1.83;;;21.60;63.70;;;;;;5068576;28;20225;-43
2023/05/06 11:05:59;;;;;;;4.53;2.00;;;21.60;63.60;;;;;;5068644;28;20206;-43
2023/05/06 11:08:31;;;;;;;4.03;1.57;;;21.70;63.60;;;;;;5068542;28;20555;-43
2023/05/06 11:11:32;;;;;;;3.07;1.57;;;21.70;63.50;;;;;;5070699;28;20233;-43
2023/05/06 11:14:12;;;;;;;5.80;1.63;;;21.70;63.40;;;;;;5060895;28;20196;-44
2023/05/06 11:16:52;;;;;;;3.70;1.70;;;21.70;63.40;;;;;;5082177;28;20196;-45
2023/05/06 11:19:28;;;;;;;2.87;1.50;;;21.70;63.40;;;;;;5034628;28;20186;-45
2023/05/06 11:22:00;;;;;;;3.43;1.50;;;21.70;63.30;;;;;;5062812;28;20193;-45
2023/05/06 11:24:43;;;;;;;2.90;1.50;;;21.70;63.40;;;;;;5034367;28;20225;-45
2023/05/06 11:27:21;;;;;;;1.97;1.30;;;21.80;63.40;;;;;;5071395;28;20194;-44
2023/05/06 11:29:48;;;;;;;2.60;1.37;;;21.80;63.50;;;;;;5067590;28;20558;-44
2023/05/06 11:32:26;;;;;;;2.73;1.50;;;21.80;63.20;;;;;;5068094;28;20201;-44
2023/05/06 11:34:58;;;;;;;1.97;1.17;;;21.80;63.20;;;;;;5045179;28;20207;-44
2023/05/06 11:37:30;;;;;;;2.87;1.23;;;21.80;63.80;;;;;;5067503;28;20201;-43
2023/05/06 11:40:06;;;;;;;3.30;1.20;;;21.80;63.30;;;;;;5065804;28;20208;-43
2023/05/06 11:42:39;;;;;;;1.47;1.10;;;21.80;63.50;;;;;;5068532;28;20194;-43
2023/05/06 11:45:11;;;;;;;1.87;1.20;;;21.80;63.40;;;;;;5068833;28;20201;-43
2023/05/06 11:47:43;;;;;;;1.43;1.03;;;21.90;63.40;;;;;;5059604;28;20214;-43
2023/05/06 11:50:12;;;;;;;1.20;0.90;;;21.90;63.40;;;;;;5075344;28;20201;-43
2023/05/06 11:52:41;;;;;;;4.00;1.50;;;21.90;63.30;;;;;;5076244;28;20234;-44
2023/05/06 11:55:12;;;;;;;1.77;1.30;;;21.90;63.20;;;;;;5051650;28;20198;-43
2023/05/06 11:57:43;;;;;;;2.60;0.90;;;21.90;63.10;;;;;;5079247;28;20262;-43
2023/05/06 12:00:14;;;;;;;3.60;1.20;;;22.00;63.20;;;;;;5052583;28;20194;-43
2023/05/06 12:02:47;;;;;;;2.37;1.10;;;22.00;63.10;;;;;;5071711;28;20201;-44
2023/05/06 12:05:16;;;;;;;1.60;1.10;;;22.00;63.10;;;;;;5073414;28;20200;-44
2023/05/06 12:07:45;;;;;;;2.00;1.10;;;22.00;63.00;;;;;;5079566;28;20586;-44
2023/05/06 12:10:19;;;;;;;1.77;0.90;;;22.00;63.10;;;;;;5056115;28;20605;-44
2023/05/06 12:12:49;;;;;;;1.37;1.10;;;22.00;63.10;;;;;;5079505;28;20256;-44
2023/05/06 12:15:19;;;;;;;1.70;1.00;;;22.00;63.00;;;;;;5073872;28;20322;-44
2023/05/06 12:17:49;;;;;;;1.67;0.83;;;22.10;63.10;;;;;;5070965;28;20232;-43
2023/05/06 12:20:17;;;;;;;2.67;1.30;;;22.10;63.00;;;;;;5070798;28;20205;-43
2023/05/06 12:23:04;;;;;;;1.60;1.00;;;22.10;63.00;;;;;;5070122;28;20213;-44
2023/05/06 12:25:37;;;;;;;1.73;1.00;;;22.10;62.90;;;;;;5045893;28;20573;-43
2023/05/06 12:28:25;;;;;;;2.53;1.13;;;22.10;62.90;;;;;;5061259;28;20225;-43
2023/05/06 12:31:16;;;;;;;1.53;1.00;;;22.10;62.80;;;;;;5076503;28;20216;-43
2023/05/06 12:33:48;;;;;;;1.40;1.03;;;22.10;62.90;;;;;;5058417;28;20567;-44
2023/05/06 12:36:19;;;;;;;1.63;0.80;;;22.10;62.90;;;;;;5055442;28;20198;-43
2023/05/06 12:39:00;;;;;;;3.50;1.00;;;22.20;62.90;;;;;;5078132;28;20200;-43
2023/05/06 12:41:44;;;;;;;1.33;0.80;;;22.20;62.90;;;;;;5067905;28;20208;-44
2023/05/06 12:44:39;;;;;;;1.80;0.90;;;22.20;62.80;;;;;;5037498;28;20219;-43
2023/05/06 12:47:23;;;;;;;2.40;0.80;;;22.20;62.70;;;;;;5044650;28;20279;-44
2023/05/06 12:50:05;;;;;;;2.57;1.03;;;22.20;62.70;;;;;;5049327;28;20185;-44
2023/05/06 12:52:42;;;;;;;2.17;1.00;;;22.20;62.40;;;;;;5056590;28;20242;-43
2023/05/06 12:55:24;;;;;;;2.27;0.90;;;22.20;62.50;;;;;;5054581;28;20245;-43
2023/05/06 12:58:02;;;;;;;1.53;1.07;;;22.20;62.60;;;;;;5014699;28;20198;-44
2023/05/06 13:00:33;;;;;;;1.10;0.83;;;22.30;62.60;;;;;;5049850;28;20189;-43
2023/05/06 13:03:04;;;;;;;1.93;1.00;;;22.30;62.40;;;;;;5061049;28;20206;-43
2023/05/06 13:05:36;;;;;;;1.90;0.70;;;22.30;62.50;;;;;;5050326;28;20190;-43
2023/05/06 13:08:06;;;;;;;2.33;0.80;;;22.30;62.40;;;;;;5037638;28;20206;-43
2023/05/06 13:10:38;;;;;;;1.90;0.90;;;22.30;62.30;;;;;;5042887;28;20630;-43
2023/05/06 13:13:08;;;;;;;1.50;0.90;;;22.30;62.20;;;;;;5059120;28;20891;-44
2023/05/06 13:15:38;;;;;;;1.50;0.90;;;22.30;62.30;;;;;;5051789;28;20191;-43
2023/05/06 13:18:07;;;;;;;1.20;0.70;;;22.30;62.10;;;;;;5036237;28;20199;-43